Time;durP1;ratioP1;P1;durP2;ratioP2;P2;SDS_P1;SDS_P2;PMS_P1;PMS_P2;Temp;Humidity;BMP_temperature;BMP_pressure;BME280_temperature;BME280_humidity;BME280_pressure;Samples;Min_cycle;Max_cycle;Signal;HPM_P1;HPM_P2
2023/04/11 00:01:35;;;;;;;6.68;3.97;;;9.40;99.90;;;9.93;100.00;100059.78;5060336;28;20052;-75
2023/04/11 00:04:01;;;;;;;8.02;4.03;;;9.30;99.90;;;9.88;100.00;100029.66;5063162;28;20033;-77
2023/04/11 00:06:27;;;;;;;6.45;3.63;;;9.30;99.90;;;9.90;100.00;100045.78;5062607;28;20032;-77
2023/04/11 00:08:52;;;;;;;6.65;3.85;;;9.20;99.90;;;9.69;100.00;100041.63;5064469;28;20119;-78
2023/04/11 00:11:18;;;;;;;6.68;3.45;;;9.20;99.90;;;9.78;100.00;100032.91;5066269;28;20082;-75
2023/04/11 00:13:44;;;;;;;5.95;3.55;;;9.20;99.90;;;9.77;100.00;100038.59;5057476;28;20040;-76
2023/04/11 00:16:10;;;;;;;5.38;3.30;;;9.20;99.90;;;9.85;100.00;99986.53;5063241;28;20136;-76
2023/04/11 00:18:38;;;;;;;6.38;3.85;;;9.10;99.90;;;9.75;100.00;99958.97;5065897;28;20021;-76
2023/04/11 00:21:07;;;;;;;9.90;4.32;;;9.10;99.90;;;9.58;100.00;99916.03;5061290;28;20041;-77
2023/04/11 00:23:33;;;;;;;7.97;3.53;;;8.90;99.90;;;9.42;100.00;99873.94;5062385;28;20040;-76
2023/04/11 00:25:59;;;;;;;5.82;3.00;;;8.90;99.90;;;9.48;100.00;99915.72;5056504;28;20036;-76
2023/04/11 00:28:24;;;;;;;5.65;3.22;;;8.90;99.90;;;9.54;100.00;99895.75;5056676;28;20040;-76
2023/04/11 00:30:50;;;;;;;6.43;3.50;;;8.80;99.90;;;9.37;100.00;99856.59;5063356;28;20178;-76
2023/04/11 00:33:16;;;;;;;6.43;3.45;;;8.80;99.90;;;9.33;100.00;99876.13;5045159;28;20036;-76
2023/04/11 00:35:43;;;;;;;6.45;3.63;;;8.70;99.90;;;9.42;100.00;99922.94;5057628;28;20445;-76
2023/04/11 00:38:08;;;;;;;7.45;4.28;;;8.70;99.90;;;9.45;100.00;99930.66;5037674;28;20481;-77
2023/04/11 00:40:34;;;;;;;7.50;4.10;;;8.70;99.90;;;9.49;100.00;99925.56;5062786;28;20048;-75
2023/04/11 00:43:00;;;;;;;6.18;3.70;;;8.70;99.90;;;9.45;100.00;99921.63;5061825;28;20033;-75
2023/04/11 00:45:26;;;;;;;5.68;3.22;;;8.70;99.90;;;9.46;100.00;99953.25;5065864;28;20032;-77
2023/04/11 00:47:52;;;;;;;8.05;3.58;;;8.70;99.90;;;9.46;100.00;99932.31;5064534;28;20037;-75
2023/04/11 00:50:20;;;;;;;6.15;3.70;;;8.70;99.90;;;9.47;100.00;99974.81;5063678;28;20028;-75
2023/04/11 00:52:50;;;;;;;5.65;3.40;;;8.70;99.90;;;9.50;100.00;99977.06;5065952;28;20117;-76
2023/04/11 00:55:16;;;;;;;7.35;3.75;;;8.70;99.90;;;9.46;100.00;99969.56;5056187;28;20036;-76
2023/04/11 00:57:43;;;;;;;7.72;4.10;;;8.80;99.90;;;9.39;100.00;99977.00;5059836;28;20036;-75
2023/04/11 01:00:10;;;;;;;7.57;3.63;;;8.80;99.90;;;9.37;100.00;99974.47;5059845;28;20067;-76
2023/04/11 01:02:41;;;;;;;8.25;3.90;;;8.70;99.90;;;9.43;100.00;99989.09;5065637;28;20111;-75
2023/04/11 01:05:09;;;;;;;8.63;3.92;;;8.70;99.90;;;9.40;100.00;99987.63;5065204;28;20036;-75
2023/04/11 01:07:37;;;;;;;;;;;8.70;99.90;;;9.48;100.00;100000.13;5058953;28;20082;-75
2023/04/11 01:10:04;;;;;;;6.28;3.63;;;8.80;99.90;;;9.48;100.00;100002.84;5081131;28;19951;-75
2023/04/11 01:12:32;;;;;;;6.45;3.55;;;8.80;99.90;;;9.49;100.00;100012.69;5043270;28;20032;-74
2023/04/11 01:14:58;;;;;;;6.45;3.78;;;8.80;99.90;;;9.35;100.00;99982.88;5064458;28;20075;-76
2023/04/11 01:17:24;;;;;;;6.10;2.83;;;8.90;99.90;;;9.55;100.00;100009.09;5057602;28;20083;-75
2023/04/11 01:19:51;;;;;;;6.53;3.00;;;8.80;99.90;;;9.45;100.00;99997.88;5063478;28;20484;-75
2023/04/11 01:22:21;;;;;;;7.22;2.80;;;8.80;99.90;;;9.46;100.00;100010.41;5065475;28;20097;-74
2023/04/11 01:24:48;;;;;;;4.72;2.38;;;8.80;99.90;;;9.32;100.00;99987.94;5072797;28;20033;-75
2023/04/11 01:27:14;;;;;;;5.05;2.33;;;8.80;99.90;;;9.39;100.00;99993.31;5055638;28;20450;-74
2023/04/11 01:29:40;;;;;;;4.70;2.25;;;8.80;99.90;;;9.44;100.00;99993.47;5063840;28;20037;-75
2023/04/11 01:32:05;;;;;;;5.20;2.35;;;8.80;99.90;;;9.43;100.00;100002.69;5066385;28;20047;-77
2023/04/11 01:34:33;;;;;;;7.13;2.47;;;8.80;99.90;;;9.42;100.00;99961.06;5060543;28;20049;-76
2023/04/11 01:37:00;;;;;;;;;;;8.80;99.90;;;9.56;100.00;99983.53;5065903;28;20041;-75
2023/04/11 01:39:28;;;;;;;6.65;2.45;;;8.80;99.90;;;9.37;100.00;99988.09;5060711;28;19979;-75
2023/04/11 01:41:55;;;;;;;5.07;2.42;;;8.70;99.90;;;9.39;100.00;99993.31;5062348;28;20177;-76
2023/04/11 01:44:23;;;;;;;4.65;2.42;;;8.70;99.90;;;9.37;100.00;99987.28;5061568;28;20036;-74
2023/04/11 01:46:50;;;;;;;4.05;2.10;;;8.70;99.90;;;9.40;100.00;99981.38;5062140;28;20048;-74
2023/04/11 01:49:17;;;;;;;4.00;2.22;;;8.70;99.90;;;9.30;100.00;99971.84;5057848;28;20033;-75
2023/04/11 01:51:44;;;;;;;6.88;2.35;;;8.70;99.90;;;9.26;100.00;99970.59;5060635;28;20499;-75
2023/04/11 01:54:10;;;;;;;4.32;2.10;;;8.70;99.90;;;9.23;100.00;99975.69;5065132;28;20029;-74
2023/04/11 01:56:37;;;;;;;4.97;1.92;;;8.70;99.90;;;9.19;100.00;99973.41;5062715;28;20448;-75
2023/04/11 01:59:03;;;;;;;5.32;2.08;;;8.70;99.90;;;9.42;100.00;99980.09;5062978;28;20113;-76
2023/04/11 02:01:29;;;;;;;3.53;1.55;;;8.70;99.90;;;9.24;100.00;99970.00;5064772;28;20035;-74
2023/04/11 02:03:56;;;;;;;3.28;1.58;;;8.70;99.90;;;9.16;100.00;99968.44;5080177;28;20089;-74
2023/04/11 02:06:22;;;;;;;3.50;1.77;;;8.70;99.90;;;9.29;100.00;99962.03;5060009;28;20045;-74
2023/04/11 02:08:47;;;;;;;3.58;1.45;;;8.70;99.90;;;9.26;100.00;99957.00;5065229;28;20039;-75
2023/04/11 02:11:13;;;;;;;2.97;1.58;;;8.70;99.90;;;9.26;100.00;99943.38;5054873;28;20039;-74
2023/04/11 02:13:39;;;;;;;2.45;1.40;;;8.60;99.90;;;9.21;100.00;99949.53;5057704;28;20060;-74
2023/04/11 02:16:07;;;;;;;4.57;1.50;;;8.60;99.90;;;9.07;100.00;99916.19;5065237;28;20113;-74
2023/04/11 02:18:35;;;;;;;3.15;1.30;;;8.70;99.90;;;9.15;100.00;99906.91;5064412;28;20085;-74
2023/04/11 02:21:01;;;;;;;3.15;1.42;;;8.70;99.90;;;9.15;100.00;99900.59;5059843;28;20033;-75
2023/04/11 02:23:27;;;;;;;2.60;1.33;;;8.70;99.90;;;9.28;100.00;99929.56;5058146;28;20029;-76
2023/04/11 02:25:53;;;;;;;3.70;1.10;;;8.70;99.90;;;9.34;100.00;99910.44;5018708;28;20087;-75
2023/04/11 02:28:18;;;;;;;2.35;1.05;;;8.70;99.90;;;9.29;100.00;99896.69;5060646;28;20477;-75
2023/04/11 02:30:44;;;;;;;2.10;1.10;;;8.80;99.90;;;9.36;100.00;99907.47;5056384;28;20157;-75
2023/04/11 02:33:10;;;;;;;2.53;1.00;;;8.70;99.90;;;9.39;100.00;99901.59;5065612;28;20032;-74
2023/04/11 02:35:36;;;;;;;3.58;1.13;;;8.70;99.90;;;9.39;100.00;99904.31;5062627;28;20051;-75
2023/04/11 02:38:02;;;;;;;4.05;1.15;;;8.70;99.90;;;9.38;100.00;99899.09;5061152;28;20032;-75
2023/04/11 02:40:29;;;;;;;2.75;0.80;;;8.70;99.90;;;9.38;100.00;99893.66;5057289;28;20061;-75
2023/04/11 02:42:55;;;;;;;4.97;1.98;;;8.70;99.90;;;9.31;100.00;99891.84;5051579;28;20040;-74
2023/04/11 02:45:20;;;;;;;1.73;1.05;;;8.70;99.90;;;9.17;100.00;99871.28;5063715;28;20352;-75
2023/04/11 02:47:46;;;;;;;2.45;1.17;;;8.70;99.90;;;9.27;100.00;99887.06;5041996;28;20108;-76
2023/04/11 02:50:13;;;;;;;2.30;0.80;;;8.70;99.90;;;9.37;100.00;99881.09;5067466;28;20056;-74
2023/04/11 02:52:46;;;;;;;2.55;1.02;;;8.70;99.90;;;9.40;100.00;99881.47;5064343;28;20467;-75
2023/04/11 02:55:12;;;;;;;2.92;1.02;;;8.70;99.90;;;9.39;100.00;99885.25;5064082;28;20039;-74
2023/04/11 02:57:38;;;;;;;2.42;1.00;;;8.60;99.90;;;9.40;100.00;99883.38;5068816;28;20517;-75
2023/04/11 03:00:08;;;;;;;2.28;0.90;;;8.60;99.90;;;9.30;100.00;99867.56;5081393;28;20040;-74
2023/04/11 03:02:43;;;;;;;3.97;1.00;;;8.50;99.90;;;9.14;100.00;99869.81;5070491;28;20037;-75
2023/04/11 03:05:10;;;;;;;3.85;1.02;;;8.50;99.90;;;9.13;100.00;99867.34;5038857;28;20042;-74
2023/04/11 03:07:39;;;;;;;5.95;1.45;;;8.50;99.90;;;9.12;100.00;99871.13;5073258;28;20029;-75
2023/04/11 03:10:06;;;;;;;2.67;1.15;;;8.50;99.90;;;9.29;100.00;99865.91;5067650;28;20078;-75
2023/04/11 03:12:32;;;;;;;3.30;1.05;;;8.50;99.90;;;9.26;100.00;99878.06;5060397;28;20040;-75
2023/04/11 03:15:03;;;;;;;4.57;1.10;;;8.40;99.90;;;9.03;100.00;99871.44;5044806;28;20479;-75
2023/04/11 03:17:28;;;;;;;2.75;1.10;;;8.40;99.90;;;9.18;100.00;99883.81;5033976;28;20025;-75
2023/04/11 03:19:55;;;;;;;3.70;1.27;;;8.30;99.90;;;9.27;100.00;99887.91;5059672;28;20048;-74
2023/04/11 03:22:23;;;;;;;5.32;1.25;;;8.30;99.90;;;9.14;100.00;99893.50;5057192;28;20064;-75
2023/04/11 03:24:49;;;;;;;3.13;1.20;;;8.40;99.90;;;9.13;100.00;99889.13;5067686;28;20025;-76
2023/04/11 03:27:18;;;;;;;3.80;1.00;;;8.50;99.90;;;9.10;100.00;99870.53;5064705;28;20297;-81
2023/04/11 03:29:47;;;;;;;4.35;1.20;;;8.50;99.90;;;9.19;100.00;99894.50;5061218;28;20032;-75
2023/04/11 03:32:22;;;;;;;4.47;1.25;;;8.60;99.90;;;9.27;100.00;99893.34;5061563;28;20040;-75
2023/04/11 03:34:50;;;;;;;6.03;1.60;;;8.70;99.90;;;9.33;100.00;99895.19;5068837;28;20024;-76
2023/04/11 03:37:15;;;;;;;4.90;1.60;;;8.70;99.90;;;9.38;100.00;99896.38;5056836;28;20066;-75
2023/04/11 03:39:41;;;;;;;4.55;1.60;;;8.70;99.90;;;9.39;100.00;99901.59;5055346;28;20051;-76
2023/04/11 03:42:07;;;;;;;8.80;2.28;;;8.70;99.90;;;9.13;100.00;99941.63;5042257;28;20038;-75
2023/04/11 03:44:34;;;;;;;5.32;1.70;;;8.80;99.90;;;8.68;96.33;99936.41;5044428;28;20040;-76
2023/04/11 03:47:00;;;;;;;4.57;1.17;;;8.60;99.90;;;8.60;95.88;99940.22;5082597;28;20028;-74
2023/04/11 03:49:33;;;;;;;3.42;1.10;;;8.40;99.90;;;8.40;96.16;99933.03;5069718;28;20072;-74
2023/04/11 03:52:00;;;;;;;2.50;0.70;;;8.20;99.90;;;8.03;95.46;99935.56;5061549;28;20032;-75
2023/04/11 03:54:27;;;;;;;2.53;0.98;;;8.00;99.90;;;7.98;96.05;99938.91;5058926;28;20029;-74
2023/04/11 03:56:53;;;;;;;5.63;1.20;;;8.00;99.90;;;7.70;95.98;99945.53;5067518;28;20044;-75
2023/04/11 03:59:22;;;;;;;5.00;1.20;;;7.80;99.90;;;7.90;96.67;99937.28;5061166;28;20037;-76
2023/04/11 04:01:53;;;;;;;3.45;1.00;;;7.80;99.90;;;7.95;96.54;99944.78;5081939;28;20041;-75
2023/04/11 04:04:18;;;;;;;4.13;1.20;;;7.70;99.90;;;7.94;96.07;99921.38;5065204;28;20051;-74
2023/04/11 04:06:49;;;;;;;4.35;1.00;;;7.70;99.90;;;7.83;96.11;99909.31;5066379;28;20084;-76
2023/04/11 04:09:16;;;;;;;7.10;1.10;;;7.60;99.90;;;8.04;95.54;99924.47;5054884;28;20042;-73
2023/04/11 04:11:47;;;;;;;4.63;1.40;;;7.60;99.90;;;7.94;95.26;99934.97;5066903;28;20145;-74
2023/04/11 04:14:13;;;;;;;5.28;1.45;;;7.60;99.90;;;8.16;96.02;99940.09;5046572;28;20029;-75
2023/04/11 04:16:40;;;;;;;5.35;1.35;;;7.60;99.90;;;8.16;96.25;99940.09;5083064;28;20036;-76
2023/04/11 04:19:06;;;;;;;8.68;1.55;;;7.60;99.90;;;8.18;96.00;99925.22;5066006;28;20554;-76
2023/04/11 04:21:36;;;;;;;6.22;1.60;;;7.60;99.90;;;8.07;96.34;99931.34;5074295;28;20036;-75
2023/04/11 04:24:03;;;;;;;7.95;1.40;;;7.60;99.90;;;8.19;97.29;99950.50;5065136;28;20432;-75
2023/04/11 04:26:52;;;;;;;8.30;1.70;;;7.60;99.90;;;8.05;98.67;99944.31;5054165;28;20032;-75
2023/04/11 04:29:47;;;;;;;8.05;2.15;;;7.60;99.90;;;7.85;100.00;99949.88;5064171;28;20040;-76
2023/04/11 04:32:21;;;;;;;11.80;2.50;;;7.60;99.90;;;7.83;100.00;99941.09;5062672;28;20917;-77
2023/04/11 04:34:54;;;;;;;10.93;2.40;;;7.50;99.90;;;7.88;100.00;99958.41;5061199;28;20041;-78
2023/04/11 04:37:28;;;;;;;9.75;1.92;;;7.40;99.90;;;7.72;100.00;99948.84;5059208;28;20029;-77
2023/04/11 04:40:06;;;;;;;10.15;2.47;;;7.30;99.90;;;7.58;100.00;99952.69;5035382;28;20060;-77
2023/04/11 04:42:36;;;;;;;12.10;2.60;;;7.20;99.90;;;7.52;100.00;99959.78;5073912;28;20072;-78
2023/04/11 04:45:04;;;;;;;10.48;1.88;;;7.00;99.90;;;7.41;100.00;99957.72;5074445;28;20036;-78
2023/04/11 04:47:34;;;;;;;8.93;2.08;;;6.90;99.90;;;7.36;100.00;99954.81;5041971;28;20043;-77
2023/04/11 04:50:00;;;;;;;10.80;2.67;;;6.90;99.90;;;7.38;100.00;99939.16;5043452;28;20033;-78
2023/04/11 04:52:28;;;;;;;;;;;6.80;99.90;;;7.49;100.00;99949.38;5079943;28;20047;-77
2023/04/11 04:54:59;;;;;;;9.00;2.00;;;6.80;99.90;;;7.41;100.00;99953.13;5060133;28;20323;-76
2023/04/11 04:57:28;;;;;;;14.27;2.50;;;6.70;99.90;;;7.37;100.00;99960.03;5060953;28;20444;-76
2023/04/11 04:59:56;;;;;;;7.95;1.77;;;6.70;99.90;;;7.32;100.00;99957.97;5034606;28;20079;-77
2023/04/11 05:02:21;;;;;;;13.57;2.70;;;6.70;99.90;;;7.28;100.00;99945.00;5031075;28;20124;-76
2023/04/11 05:04:49;;;;;;;11.10;2.63;;;6.70;99.90;;;7.30;100.00;99957.34;5061376;28;20035;-76
2023/04/11 05:07:17;;;;;;;10.43;2.53;;;6.70;99.90;;;7.31;100.00;99948.16;5060140;28;20036;-75
2023/04/11 05:09:45;;;;;;;11.73;2.70;;;6.60;99.90;;;7.35;100.00;99948.56;5060293;28;20549;-76
2023/04/11 05:12:25;;;;;;;8.60;2.80;;;6.60;99.90;;;7.22;100.00;99945.88;5041651;28;20455;-75
2023/04/11 05:14:54;;;;;;;10.90;2.80;;;6.60;99.90;;;7.35;100.00;99959.44;5058557;28;20029;-74
2023/04/11 05:17:20;;;;;;;10.13;2.88;;;6.60;99.90;;;7.32;100.00;99957.13;5048608;28;20040;-75
2023/04/11 05:19:45;;;;;;;9.70;2.97;;;6.60;99.90;;;7.27;100.00;99960.47;5059410;28;20044;-75
2023/04/11 05:22:11;;;;;;;8.18;2.63;;;6.70;99.90;;;7.36;100.00;99966.50;5057039;28;20040;-75
2023/04/11 05:24:42;;;;;;;9.68;2.95;;;6.70;99.90;;;7.33;100.00;99966.94;5070002;28;20028;-75
2023/04/11 05:27:10;;;;;;;16.80;3.67;;;6.70;99.90;;;7.39;100.00;99971.50;5057000;28;20116;-74
2023/04/11 05:29:36;;;;;;;12.63;3.17;;;6.70;99.90;;;7.47;100.00;99975.88;5081317;28;20045;-75
2023/04/11 05:32:02;;;;;;;10.68;3.42;;;6.70;99.90;;;7.33;100.00;99972.38;5064071;28;20045;-75
2023/04/11 05:34:32;;;;;;;11.13;3.60;;;6.80;99.90;;;7.32;100.00;99978.84;5052616;28;20473;-74
2023/04/11 05:36:58;;;;;;;13.10;4.05;;;6.80;99.90;;;7.43;100.00;99974.66;5059719;28;20498;-74
2023/04/11 05:39:23;;;;;;;10.50;3.58;;;6.90;99.90;;;7.55;100.00;99980.22;5060489;28;20036;-74
2023/04/11 05:41:49;;;;;;;14.70;3.60;;;6.90;99.90;;;7.58;100.00;99983.34;5051536;28;20037;-74
2023/04/11 05:44:15;;;;;;;9.95;3.85;;;7.00;99.90;;;7.78;100.00;99982.47;5054752;28;20106;-75
2023/04/11 05:46:41;;;;;;;8.35;3.72;;;7.10;99.90;;;7.76;100.00;99981.84;5065711;28;20040;-76
2023/04/11 05:49:07;;;;;;;9.73;3.85;;;7.20;99.90;;;7.94;100.00;99992.00;5066267;28;20407;-76
2023/04/11 05:51:33;;;;;;;13.55;3.83;;;7.20;99.90;;;8.06;100.00;100013.91;5062589;28;20029;-75
2023/04/11 05:53:59;;;;;;;17.17;5.32;;;7.20;99.90;;;7.90;100.00;100048.63;5049996;28;20504;-76
2023/04/11 05:56:24;;;;;;;9.48;3.63;;;7.20;99.90;;;7.31;100.00;100016.00;5047726;28;20389;-76
2023/04/11 05:58:51;;;;;;;8.93;2.83;;;7.10;99.90;;;7.12;100.00;100014.13;5076206;28;20054;-77
2023/04/11 06:01:21;;;;;;;6.75;1.90;;;6.80;99.90;;;6.99;100.00;100010.38;5064253;28;20042;-76
2023/04/11 06:03:47;;;;;;;6.80;1.83;;;6.60;99.90;;;6.81;100.00;100013.72;5063877;28;20037;-76
2023/04/11 06:06:13;;;;;;;6.43;2.03;;;6.50;99.90;;;6.91;100.00;100008.72;5058536;28;20041;-76
2023/04/11 06:08:39;;;;;;;6.72;1.80;;;6.50;99.90;;;6.98;100.00;100007.88;5062487;28;20040;-76
2023/04/11 06:11:05;;;;;;;5.82;2.05;;;6.40;99.90;;;6.91;100.00;99986.19;5056628;28;20112;-76
2023/04/11 06:13:30;;;;;;;5.82;2.05;;;6.40;99.90;;;7.02;100.00;100006.41;5067824;28;20077;-75
2023/04/11 06:15:58;;;;;;;6.80;1.88;;;6.40;99.90;;;7.05;100.00;99993.25;5059137;28;20063;-75
2023/04/11 06:18:23;;;;;;;4.53;1.63;;;6.40;99.90;;;7.12;100.00;99995.13;5057847;28;20377;-75
2023/04/11 06:20:49;;;;;;;6.22;1.77;;;6.40;99.90;;;7.09;100.00;99982.00;5063015;28;20036;-76
2023/04/11 06:23:15;;;;;;;7.10;1.88;;;6.50;99.90;;;7.16;100.00;99990.94;5063492;28;20037;-76
2023/04/11 06:25:40;;;;;;;8.50;2.35;;;6.50;99.90;;;7.13;100.00;99996.78;5060876;28;20121;-76
2023/04/11 06:28:06;;;;;;;9.88;2.25;;;6.50;99.90;;;7.14;100.00;100004.75;5069846;28;20109;-76
2023/04/11 06:30:32;;;;;;;5.35;1.88;;;6.60;99.90;;;7.09;100.00;100011.81;5060081;28;20053;-75
2023/04/11 06:32:58;;;;;;;7.97;2.35;;;6.70;99.90;;;7.04;100.00;100026.84;5069084;28;20120;-75
2023/04/11 06:35:24;;;;;;;6.97;2.40;;;6.80;99.90;;;7.23;100.00;100040.63;5060780;28;20043;-76
2023/04/11 06:37:51;;;;;;;10.27;2.35;;;6.90;99.90;;;7.49;100.00;100049.78;5068741;28;20036;-75
2023/04/11 06:40:20;;;;;;;5.07;1.90;;;7.00;99.90;;;7.44;100.00;100049.59;5064868;28;20033;-76
2023/04/11 06:42:46;;;;;;;6.13;1.63;;;7.00;99.90;;;7.39;100.00;100050.22;5072488;28;20554;-77
2023/04/11 06:45:12;;;;;;;4.22;1.60;;;6.90;99.90;;;7.15;100.00;100035.41;5064148;28;20068;-76
2023/04/11 06:47:39;;;;;;;7.30;1.55;;;6.80;99.90;;;7.02;100.00;100026.22;5063201;28;20198;-76
2023/04/11 06:50:05;;;;;;;4.60;1.33;;;6.70;99.90;;;6.93;100.00;100032.91;5065445;28;20114;-77
2023/04/11 06:52:31;;;;;;;5.47;1.70;;;6.60;99.90;;;6.96;100.00;100032.50;5069226;28;20036;-77
2023/04/11 06:54:56;;;;;;;3.65;1.30;;;6.40;99.90;;;7.03;100.00;100030.63;5066854;28;20082;-76
2023/04/11 06:57:22;;;;;;;8.98;1.95;;;6.40;99.90;;;6.99;100.00;100026.66;5067924;28;20098;-77
2023/04/11 06:59:48;;;;;;;10.75;1.80;;;6.30;99.90;;;7.01;100.00;100029.13;5068228;28;20032;-77
2023/04/11 07:02:14;;;;;;;8.60;1.80;;;6.30;99.90;;;7.16;100.00;100042.50;5069532;28;20033;-75
2023/04/11 07:04:40;;;;;;;7.25;1.58;;;6.40;99.90;;;7.22;100.00;100044.38;5059624;28;20481;-77
2023/04/11 07:07:05;;;;;;;5.90;1.67;;;6.40;99.90;;;7.32;100.00;100036.66;5045281;28;20065;-76
2023/04/11 07:09:31;;;;;;;7.25;2.00;;;6.60;99.90;;;7.40;100.00;100042.91;5062855;28;20396;-75
2023/04/11 07:11:57;;;;;;;7.78;1.85;;;6.60;99.90;;;7.34;100.00;100056.28;5067915;28;20041;-76
2023/04/11 07:14:23;;;;;;;4.95;1.67;;;6.70;99.90;;;7.32;100.00;100042.06;5064642;28;20041;-76
2023/04/11 07:16:48;;;;;;;4.10;1.75;;;6.70;99.90;;;7.45;100.00;100053.97;5068357;28;20032;-75
2023/04/11 07:19:14;;;;;;;4.22;1.63;;;6.70;99.90;;;7.37;100.00;100046.88;5065741;28;20048;-76
2023/04/11 07:21:40;;;;;;;4.82;1.63;;;6.70;99.90;;;7.43;100.00;100056.06;5078005;28;20043;-75
2023/04/11 07:24:06;;;;;;;5.80;1.70;;;6.70;99.90;;;7.47;100.00;100062.75;5058879;28;20120;-75
2023/04/11 07:26:34;;;;;;;7.10;1.48;;;6.80;99.90;;;7.51;100.00;100065.84;5064059;28;20143;-75
2023/04/11 07:29:00;;;;;;;5.78;1.70;;;6.80;99.90;;;7.60;100.00;100060.00;5038454;28;20370;-74
2023/04/11 07:31:26;;;;;;;5.40;1.70;;;6.90;99.90;;;7.72;100.00;100062.06;5060815;28;20043;-74
2023/04/11 07:33:51;;;;;;;5.50;1.52;;;7.00;99.90;;;7.74;100.00;100059.97;5066742;28;20058;-76
2023/04/11 07:36:17;;;;;;;6.80;1.50;;;7.00;99.90;;;7.87;100.00;100064.53;5064337;28;20036;-74
2023/04/11 07:38:43;;;;;;;8.10;1.70;;;7.10;99.90;;;7.89;100.00;100057.84;5059529;28;20071;-75
2023/04/11 07:41:09;;;;;;;5.50;1.58;;;7.30;99.90;;;8.31;100.00;100070.25;5055681;28;20058;-75
2023/04/11 07:43:35;;;;;;;7.63;1.70;;;7.30;99.90;;;8.29;100.00;100056.03;5063331;28;20039;-75
2023/04/11 07:46:01;;;;;;;6.25;1.88;;;7.50;99.90;;;8.27;100.00;100069.81;5067531;28;20546;-74
2023/04/11 07:48:29;;;;;;;7.32;1.75;;;7.60;99.90;;;8.38;100.00;100053.91;5083859;28;20040;-75
2023/04/11 07:50:54;;;;;;;9.68;2.58;;;7.80;99.90;;;8.51;100.00;100081.03;5060955;28;20039;-74
2023/04/11 07:53:21;;;;;;;8.05;2.03;;;7.80;99.90;;;8.51;100.00;100081.03;5067484;28;20033;-75
2023/04/11 07:55:47;;;;;;;9.00;2.40;;;8.00;99.90;;;8.64;100.00;100074.69;5059649;28;20490;-76
2023/04/11 07:58:13;;;;;;;6.78;1.92;;;8.10;99.90;;;8.62;100.00;100082.22;5054841;28;20120;-74
2023/04/11 08:00:39;;;;;;;10.00;2.00;;;8.10;99.90;;;8.61;100.00;100075.13;5061214;28;20039;-76
2023/04/11 08:03:10;;;;;;;9.65;2.30;;;8.20;99.90;;;8.80;100.00;100088.84;5051201;28;20468;-75
2023/04/11 08:05:36;;;;;;;8.52;2.38;;;8.30;99.90;;;9.13;100.00;100093.22;5051740;28;20044;-74
2023/04/11 08:08:04;;;;;;;7.63;2.05;;;8.50;99.90;;;9.66;100.00;100080.19;5061902;28;20052;-74
2023/04/11 08:10:30;;;;;;;6.07;2.45;;;8.80;99.90;;;9.83;100.00;100075.84;5067727;28;20082;-75
2023/04/11 08:12:57;;;;;;;5.15;2.05;;;9.10;99.90;;;10.00;97.21;100083.41;5059809;28;20041;-75
2023/04/11 08:15:24;;;;;;;6.72;2.10;;;9.40;99.90;;;9.91;95.51;100082.84;5062803;28;20040;-75
2023/04/11 08:17:55;;;;;;;8.68;2.10;;;9.40;99.90;;;9.95;94.76;100078.66;5063181;28;20181;-75
2023/04/11 08:20:22;;;;;;;6.18;2.08;;;9.50;99.90;;;10.01;92.67;100096.81;5065914;28;20045;-76
2023/04/11 08:22:47;;;;;;;7.20;2.27;;;9.70;99.90;;;10.19;92.24;100076.88;5062058;28;20460;-75
2023/04/11 08:25:17;;;;;;;6.10;1.98;;;9.70;99.90;;;10.63;91.71;100093.13;5040479;28;20309;-75
2023/04/11 08:27:43;;;;;;;6.88;2.45;;;9.90;99.90;;;10.47;87.73;100078.25;5065856;28;20040;-76
2023/04/11 08:30:09;;;;;;;8.82;2.10;;;10.10;99.90;;;10.68;86.78;100084.28;5066609;28;20214;-75
2023/04/11 08:32:35;;;;;;;7.43;2.00;;;10.10;99.90;;;10.70;86.55;100078.56;5066976;28;20090;-76
2023/04/11 08:35:01;;;;;;;8.18;1.92;;;10.20;99.90;;;10.75;86.18;100097.81;5059943;28;20043;-76
2023/04/11 08:37:27;;;;;;;5.82;2.08;;;10.20;99.90;;;10.76;84.56;100089.38;5054232;28;20056;-76
2023/04/11 08:39:52;;;;;;;5.18;1.85;;;10.30;99.90;;;10.60;82.34;100068.22;5048460;28;20037;-75
2023/04/11 08:42:29;;;;;;;4.60;1.83;;;10.30;99.90;;;10.79;82.83;100067.09;5053079;28;20045;-76
2023/04/11 08:44:58;;;;;;;7.65;2.00;;;10.40;99.90;;;10.48;81.52;100082.63;5055566;28;20025;-75
2023/04/11 08:47:25;;;;;;;8.18;2.10;;;10.30;99.90;;;10.64;83.51;100099.44;5062146;28;20190;-77
2023/04/11 08:49:52;;;;;;;7.60;1.90;;;10.20;99.90;;;10.48;81.97;100093.53;5048105;28;20064;-75
2023/04/11 08:52:19;;;;;;;4.47;2.00;;;10.30;99.90;;;10.80;81.61;100081.59;5053478;28;20025;-75
2023/04/11 08:54:53;;;;;;;6.30;2.00;;;10.40;99.90;;;11.55;81.10;100084.78;5058814;28;20036;-76
2023/04/11 08:57:26;;;;;;;5.97;1.83;;;10.80;99.90;;;11.73;75.99;100061.97;5051005;28;20033;-76
2023/04/11 08:59:58;;;;;;;4.38;1.63;;;11.40;99.90;;;11.75;73.81;100061.75;5035915;28;20501;-76
2023/04/11 09:02:26;;;;;;;7.30;1.90;;;11.50;99.90;;;11.56;75.66;100083.72;5062303;28;20029;-77
2023/04/11 09:04:51;;;;;;;5.47;2.05;;;11.40;99.90;;;11.49;74.80;100077.56;5055199;28;20043;-76
2023/04/11 09:07:17;;;;;;;8.18;2.00;;;11.40;99.90;;;11.39;73.58;100059.03;5068141;28;20024;-74
2023/04/11 09:09:44;;;;;;;4.85;1.40;;;11.10;99.90;;;11.17;74.09;100081.44;5062868;28;20462;-74
2023/04/11 09:12:11;;;;;;;4.57;1.45;;;11.00;99.90;;;11.25;74.49;100080.25;5064297;28;20059;-74
2023/04/11 09:14:37;;;;;;;5.43;1.50;;;10.90;99.90;;;11.30;71.15;100052.25;5040265;28;20041;-74
2023/04/11 09:17:12;;;;;;;5.78;1.67;;;11.00;99.90;;;11.26;70.76;100081.06;5060533;28;20044;-73
2023/04/11 09:19:40;;;;;;;6.55;1.90;;;11.10;99.90;;;11.28;70.56;100054.41;5066589;28;20052;-74
2023/04/11 09:22:06;;;;;;;4.82;1.50;;;11.10;99.90;;;11.63;71.97;100078.16;5058552;28;20045;-74
2023/04/11 09:24:33;;;;;;;5.18;1.73;;;11.40;99.90;;;11.76;68.86;100077.91;5064023;28;20054;-75
2023/04/11 09:27:18;;;;;;;5.65;1.73;;;11.50;99.90;;;12.22;71.16;100080.00;5058170;28;20036;-76
2023/04/11 09:29:46;;;;;;;5.95;1.33;;;11.70;99.90;;;11.87;65.77;100076.22;5057582;28;20041;-76
2023/04/11 09:32:28;;;;;;;;;;;11.70;99.90;;;11.99;66.13;100072.66;5055356;28;20070;-75
2023/04/11 09:35:15;;;;;;;6.15;1.73;;;11.70;99.90;;;12.45;64.13;100057.19;5057346;28;19917;-75
2023/04/11 09:37:57;;;;;;;5.30;1.48;;;12.00;99.90;;;12.65;64.21;100056.78;5061590;28;20400;-75
2023/04/11 09:40:30;;;;;;;9.05;1.83;;;12.20;99.90;;;12.72;62.33;100062.09;5061697;28;20073;-75
2023/04/11 09:42:59;;;;;;;4.82;1.30;;;12.30;99.90;;;12.16;58.96;100037.22;5060054;28;20033;-73
2023/04/11 09:45:27;;;;;;;6.93;1.65;;;12.10;99.90;;;12.05;60.42;100058.06;5065788;28;20415;-76
2023/04/11 09:47:55;;;;;;;;;;;11.70;99.90;;;11.98;61.76;100066.34;5060330;28;20108;-75
2023/04/11 09:50:22;;;;;;;7.80;2.10;;;11.70;99.90;;;12.19;59.35;100056.69;5063003;28;19916;-75
2023/04/11 09:52:49;;;;;;;7.13;2.37;;;11.90;99.90;;;12.52;58.19;100041.50;5053596;28;20037;-75
2023/04/11 09:55:20;;;;;;;6.40;1.80;;;12.10;99.90;;;12.89;57.54;100061.28;5070799;28;20039;-74
2023/04/11 09:57:54;;;;;;;4.45;1.38;;;12.50;99.90;;;12.44;57.03;100061.00;5053236;28;20450;-76
2023/04/11 10:00:24;;;;;;;7.75;1.63;;;12.40;99.90;;;11.48;63.96;100095.00;5070998;28;20058;-77
2023/04/11 10:02:52;;;;;;;5.15;1.65;;;11.70;99.90;;;10.67;71.89;100137.16;5069671;28;20047;-76
2023/04/11 10:05:26;;;;;;;;;;;10.70;99.90;;;9.17;81.69;100167.91;5072932;28;20032;-78
2023/04/11 10:08:07;;;;;;;9.85;2.38;;;9.50;99.90;;;8.57;94.40;100183.47;5060665;28;19916;-78
2023/04/11 10:10:35;;;;;;;6.20;1.60;;;8.60;99.90;;;8.37;97.46;100193.56;5060259;28;20033;-75
2023/04/11 10:13:02;;;;;;;3.28;0.93;;;8.20;99.90;;;8.06;93.69;100190.50;5060048;28;20037;-76
2023/04/11 10:15:28;;;;;;;3.20;1.23;;;8.10;99.90;;;7.53;90.92;100173.19;5068646;28;20039;-76
2023/04/11 10:18:08;;;;;;;4.85;1.60;;;7.70;99.90;;;7.71;96.21;100174.44;5066613;28;20048;-76
2023/04/11 10:20:34;;;;;;;4.47;1.42;;;7.50;99.90;;;7.82;97.01;100183.81;5064959;28;20040;-75
2023/04/11 10:23:01;;;;;;;4.60;1.50;;;7.40;99.90;;;8.18;99.20;100172.47;5059743;28;20124;-74
2023/04/11 10:25:27;;;;;;;7.32;1.98;;;7.50;99.90;;;8.47;98.52;100167.59;5063064;28;20028;-74